Main page
METAR-TAF:

METAR-TAF

Airports :

Benbecula Airport

Benbecula, Scotland

latitude: 57-28N, longitude: 007-22W, elevation: 6 m

Current weather observation

The report was made 24 minutes ago, at 18:50 UTC
Wind 18 kt from the Southeast
Temperature 15°C
Humidity 67%
Pressure 998 hPa
Visibility 10 km or more

METAR: EGPL 251850Z AUTO 14018KT 9999 NCD 15/09 Q0998

Time: 20:14 (19:14 UTC)

Forecast

The report was made 8 hours and 16 minutes ago, at 10:58 UTC
Forecast valid from 25 at 12 UTC to 25 at 15 UTC
Wind 23 kt from the Southeast with gusts up to 36 kt
Visibility 10 km or more
Few clouds at a height of 1800 ft
Scattered clouds at a height of 3000 ft
Probability 30% :
Temporary
from 25 at 12 UTC to 25 at 14 UTC
Visibility: 7000 m
Broken clouds at a height of 1200 ft
rain, light rain, drizzle

TAF: EGPL 251058Z 2512/2515 14023G36KT 9999 FEW018 SCT030 PROB30 TEMPO 2512/2514 7000 RA -RADZ BKN012

Weather observations and forecasts of more than 4000 airports (METAR and TAF reports).

The available stations are represented by yellow and red dots on the map.

Hover mouse over dot to see the name of the station.

Then click to see weather observations and forecasts.

To change the map : click on the green buttons with a black cross to zoom in, on the green button with a dash to zoom out, or on the green arrows for adjacent maps.


METAR-TAF: